PWSweather.com
Personal Weather Stations
Station Observations
KILMORRI1
Goose Lake, Morris, IL 60450

Goose LakeMorris, IL 60450

Lat: 41.34, Lon: -88.3

Elevation: 523

Station Type:

Latest ConditionsUpdated 8:00:04 PM CDT Saturday, Oct 21, 2017
Currently Today's Max Today's Min Today's Average
Temperature 70.2°F21.2°C 77.5°F25.3°C 59.5°F15.3°C 67.2°F19.6°C
Dew Point 60.4°F15.8°C 63.4°F17.4°C 50.8°F10.4°C 55.7°F13.2°C
Winds 5.8 mph S9.3 kmh S 12.7 mph SSW20.4 kmh SSW - 5.6 mph 9.0 kmh
Wind Gusts 8.1 mph13.0 kmh 26.5 mph42.6 kmh - -
Humidity 71% 74% 57% 67%
Pressure 29.98 in1015.2 mb 30.04 in1017.3 mb 29.94 in1013.9 mb -
Hour Temp Dew Point Humidity Winds Wind Gusts Pressure Precip Precip Rate Daily Precip Total
08:00 PM 70.2°F21.2°C 60.4°F15.8°C 71% 5.8 mph S9.3 kmh S 8.1 mph13.0 kmh 29.98 in1015.2 mb - 0.00 in0.0 mm 0.00 in0.0 mm
07:50 PM 70.4°F21.3°C 60.1°F15.6°C 70% 6.9 mph S11.1 kmh S 8.1 mph13.0 kmh 29.98 in1015.2 mb - 0.00 in0.0 mm 0.00 in0.0 mm
07:40 PM 71.0°F21.7°C 60.3°F15.7°C 69% 4.6 mph S7.4 kmh S 6.9 mph11.1 kmh 29.98 in1015.2 mb - 0.00 in0.0 mm 0.00 in0.0 mm
07:30 PM 71.0°F21.7°C 60.3°F15.7°C 69% 5.8 mph S9.3 kmh S 9.2 mph14.8 kmh 29.98 in1015.2 mb - 0.00 in0.0 mm 0.00 in0.0 mm
07:20 PM 70.1°F21.2°C 60.3°F15.7°C 71% 4.6 mph S7.4 kmh S 10.4 mph16.7 kmh 29.97 in1014.9 mb - 0.00 in0.0 mm 0.00 in0.0 mm
07:10 PM 70.1°F21.2°C 59.8°F15.4°C 70% 2.3 mph SSE3.7 kmh SSE 5.8 mph9.3 kmh 29.97 in1014.9 mb - 0.00 in0.0 mm 0.00 in0.0 mm
07:00 PM 71.2°F21.8°C 60.1°F15.6°C 68% 4.6 mph S7.4 kmh S 6.9 mph11.1 kmh 29.97 in1014.9 mb - 0.00 in0.0 mm 0.00 in0.0 mm
06:50 PM 71.7°F22.1°C 60.1°F15.6°C 67% 3.5 mph S5.6 kmh S 4.6 mph7.4 kmh 29.97 in1014.9 mb - 0.00 in0.0 mm 0.00 in0.0 mm
06:40 PM 72.1°F22.3°C 60.1°F15.6°C 66% 4.6 mph S7.4 kmh S 11.5 mph18.5 kmh 29.97 in1014.9 mb - 0.00 in0.0 mm 0.00 in0.0 mm
06:30 PM 72.2°F22.3°C 60.2°F15.7°C 66% 3.5 mph S5.6 kmh S 6.9 mph11.1 kmh 29.97 in1014.9 mb - 0.00 in0.0 mm 0.00 in0.0 mm
06:20 PM 72.6°F22.6°C 60.6°F15.9°C 66% 4.6 mph S7.4 kmh S 9.2 mph14.8 kmh 29.96 in1014.6 mb - 0.00 in0.0 mm 0.00 in0.0 mm
06:10 PM 73.2°F22.9°C 60.7°F15.9°C 65% 5.8 mph S9.3 kmh S 8.1 mph13.0 kmh 29.96 in1014.6 mb - 0.00 in0.0 mm 0.00 in0.0 mm
06:00 PM 73.4°F23.0°C 60.9°F16.1°C 65% 3.5 mph S5.6 kmh S 10.4 mph16.7 kmh 29.96 in1014.6 mb - 0.00 in0.0 mm 0.00 in0.0 mm
05:50 PM 73.8°F23.2°C 60.9°F16.1°C 64% 3.5 mph S5.6 kmh S 6.9 mph11.1 kmh 29.96 in1014.6 mb - 0.00 in0.0 mm 0.00 in0.0 mm
05:40 PM 74.1°F23.4°C 61.1°F16.2°C 64% 8.1 mph S13.0 kmh S 13.8 mph22.2 kmh 29.96 in1014.6 mb - 0.00 in0.0 mm 0.00 in0.0 mm
05:30 PM 74.2°F23.4°C 60.8°F16.0°C 63% 5.8 mph S9.3 kmh S 11.5 mph18.5 kmh 29.95 in1014.2 mb - 0.00 in0.0 mm 0.00 in0.0 mm
05:20 PM 74.1°F23.4°C 61.1°F16.2°C 64% 9.2 mph S14.8 kmh S 16.1 mph25.9 kmh 29.95 in1014.2 mb - 0.00 in0.0 mm 0.00 in0.0 mm
05:10 PM 74.4°F23.6°C 61.0°F16.1°C 63% 6.9 mph S11.1 kmh S 10.4 mph16.7 kmh 29.95 in1014.2 mb - 0.00 in0.0 mm 0.00 in0.0 mm
05:00 PM 75.3°F24.1°C 61.4°F16.3°C 62% 6.9 mph S11.1 kmh S 13.8 mph22.2 kmh 29.95 in1014.2 mb - 0.00 in0.0 mm 0.00 in0.0 mm
04:50 PM 75.1°F23.9°C 62.1°F16.7°C 64% 6.9 mph S11.1 kmh S 16.1 mph25.9 kmh 29.95 in1014.2 mb - 0.00 in0.0 mm 0.00 in0.0 mm
04:40 PM 74.5°F23.6°C 62.0°F16.7°C 65% 6.9 mph SSW11.1 kmh SSW 10.4 mph16.7 kmh 29.95 in1014.2 mb - 0.00 in0.0 mm 0.00 in0.0 mm
04:30 PM 75.1°F23.9°C 61.6°F16.4°C 63% 10.4 mph S16.7 kmh S 26.5 mph42.6 kmh 29.95 in1014.2 mb - 0.00 in0.0 mm 0.00 in0.0 mm
04:20 PM 76.3°F24.6°C 60.9°F16.1°C 59% 6.9 mph SSW11.1 kmh SSW 10.4 mph16.7 kmh 29.95 in1014.2 mb - 0.00 in0.0 mm 0.00 in0.0 mm
04:10 PM 75.8°F24.3°C 60.9°F16.1°C 60% 6.9 mph SSW11.1 kmh SSW 13.8 mph22.2 kmh 29.94 in1013.9 mb - 0.00 in0.0 mm 0.00 in0.0 mm
04:00 PM 76.2°F24.6°C 61.3°F16.3°C 60% 6.9 mph S11.1 kmh S 8.1 mph13.0 kmh 29.94 in1013.9 mb - 0.00 in0.0 mm 0.00 in0.0 mm
03:50 PM 76.4°F24.7°C 61.9°F16.6°C 61% 9.2 mph SSW14.8 kmh SSW 19.6 mph31.5 kmh 29.94 in1013.9 mb - 0.00 in0.0 mm 0.00 in0.0 mm
03:40 PM 76.0°F24.4°C 62.0°F16.7°C 62% 8.1 mph S13.0 kmh S 19.6 mph31.5 kmh 29.95 in1014.2 mb - 0.00 in0.0 mm 0.00 in0.0 mm
03:30 PM 76.4°F24.7°C 62.0°F16.7°C 61% 10.4 mph SSW16.7 kmh SSW 11.5 mph18.5 kmh 29.95 in1014.2 mb - 0.00 in0.0 mm 0.00 in0.0 mm
03:20 PM 76.9°F24.9°C 63.4°F17.4°C 63% 8.1 mph S13.0 kmh S 17.3 mph27.8 kmh 29.95 in1014.2 mb - 0.00 in0.0 mm 0.00 in0.0 mm
03:10 PM 77.1°F25.1°C 62.1°F16.7°C 60% 6.9 mph S11.1 kmh S 19.6 mph31.5 kmh 29.95 in1014.2 mb - 0.00 in0.0 mm 0.00 in0.0 mm
03:00 PM 77.5°F25.3°C 62.1°F16.7°C 59% 10.4 mph SSW16.7 kmh SSW 21.9 mph35.2 kmh 29.95 in1014.2 mb - 0.00 in0.0 mm 0.00 in0.0 mm
02:50 PM 77.1°F25.1°C 60.7°F15.9°C 57% 5.8 mph SSW9.3 kmh SSW 9.2 mph14.8 kmh 29.95 in1014.2 mb - 0.00 in0.0 mm 0.00 in0.0 mm
02:40 PM 77.0°F25.0°C 62.0°F16.7°C 60% 6.9 mph S11.1 kmh S 13.8 mph22.2 kmh 29.95 in1014.2 mb - 0.00 in0.0 mm 0.00 in0.0 mm
02:30 PM 76.6°F24.8°C 62.1°F16.7°C 61% 3.5 mph SSW5.6 kmh SSW 5.8 mph9.3 kmh 29.96 in1014.6 mb - 0.00 in0.0 mm 0.00 in0.0 mm
02:20 PM 76.8°F24.9°C 61.9°F16.6°C 60% 6.9 mph S11.1 kmh S 23.0 mph37.0 kmh 29.96 in1014.6 mb - 0.00 in0.0 mm 0.00 in0.0 mm
02:10 PM 76.4°F24.7°C 61.5°F16.4°C 60% 4.6 mph S7.4 kmh S 8.1 mph13.0 kmh 29.97 in1014.9 mb - 0.00 in0.0 mm 0.00 in0.0 mm
02:00 PM 76.2°F24.6°C 60.8°F16.0°C 59% 5.8 mph SW9.3 kmh SW 9.2 mph14.8 kmh 29.97 in1014.9 mb - 0.00 in0.0 mm 0.00 in0.0 mm
01:50 PM 75.1°F23.9°C 62.1°F16.7°C 64% 5.8 mph SSW9.3 kmh SSW 10.4 mph16.7 kmh 29.98 in1015.2 mb - 0.00 in0.0 mm 0.00 in0.0 mm
01:40 PM 75.1°F23.9°C 59.7°F15.4°C 59% 4.6 mph S7.4 kmh S 8.1 mph13.0 kmh 29.99 in1015.6 mb - 0.00 in0.0 mm 0.00 in0.0 mm
01:30 PM 74.2°F23.4°C 59.0°F15.0°C 59% 12.7 mph SSW20.4 kmh SSW 21.9 mph35.2 kmh 29.99 in1015.6 mb - 0.00 in0.0 mm 0.00 in0.0 mm
01:20 PM 74.9°F23.8°C 60.0°F15.6°C 60% 9.2 mph S14.8 kmh S 18.4 mph29.6 kmh 29.99 in1015.6 mb - 0.00 in0.0 mm 0.00 in0.0 mm
01:10 PM 73.9°F23.3°C 58.7°F14.8°C 59% 6.9 mph S11.1 kmh S 13.8 mph22.2 kmh 29.99 in1015.6 mb - 0.00 in0.0 mm 0.00 in0.0 mm
01:00 PM 74.4°F23.6°C 59.2°F15.1°C 59% 8.1 mph S13.0 kmh S 6.9 mph11.1 kmh 30.00 in1015.9 mb - 0.00 in0.0 mm 0.00 in0.0 mm
12:50 PM 75.0°F23.9°C 59.7°F15.4°C 59% 6.9 mph S11.1 kmh S 16.1 mph25.9 kmh 30.00 in1015.9 mb - 0.00 in0.0 mm 0.00 in0.0 mm
12:40 PM 75.1°F23.9°C 59.8°F15.4°C 59% 9.2 mph SSW14.8 kmh SSW 17.3 mph27.8 kmh 30.00 in1015.9 mb - 0.00 in0.0 mm 0.00 in0.0 mm
12:30 PM 75.0°F23.9°C 59.2°F15.1°C 58% 10.4 mph S16.7 kmh S 16.1 mph25.9 kmh 30.01 in1016.3 mb - 0.00 in0.0 mm 0.00 in0.0 mm
12:20 PM 75.4°F24.1°C 60.6°F15.9°C 60% 4.6 mph S7.4 kmh S 16.1 mph25.9 kmh 30.02 in1016.6 mb - 0.00 in0.0 mm 0.00 in0.0 mm
12:10 PM 74.4°F23.6°C 60.5°F15.8°C 62% 3.5 mph SW5.6 kmh SW 6.9 mph11.1 kmh 30.02 in1016.6 mb - 0.00 in0.0 mm 0.00 in0.0 mm
12:00 PM 72.0°F22.2°C 58.7°F14.8°C 63% 4.6 mph S7.4 kmh S 10.4 mph16.7 kmh 30.03 in1016.9 mb - 0.00 in0.0 mm 0.00 in0.0 mm
11:50 AM 71.6°F22.0°C 58.3°F14.6°C 63% 6.9 mph SSW11.1 kmh SSW 8.1 mph13.0 kmh 30.03 in1016.9 mb - 0.00 in0.0 mm 0.00 in0.0 mm
11:40 AM 71.0°F21.7°C 57.8°F14.3°C 63% 8.1 mph SSW13.0 kmh SSW 13.8 mph22.2 kmh 30.03 in1016.9 mb - 0.00 in0.0 mm 0.00 in0.0 mm
11:30 AM 70.2°F21.2°C 56.6°F13.7°C 62% 8.1 mph S13.0 kmh S 12.7 mph20.4 kmh 30.03 in1016.9 mb - 0.00 in0.0 mm 0.00 in0.0 mm
11:20 AM 70.3°F21.3°C 56.3°F13.5°C 61% 8.1 mph S13.0 kmh S 12.7 mph20.4 kmh 30.03 in1016.9 mb - 0.00 in0.0 mm 0.00 in0.0 mm
11:10 AM 70.1°F21.2°C 56.9°F13.8°C 63% 6.9 mph SSW11.1 kmh SSW 13.8 mph22.2 kmh 30.03 in1016.9 mb - 0.00 in0.0 mm 0.00 in0.0 mm
11:00 AM 69.7°F20.9°C 57.0°F13.9°C 64% 8.1 mph S13.0 kmh S 12.7 mph20.4 kmh 30.03 in1016.9 mb - 0.00 in0.0 mm 0.00 in0.0 mm
10:50 AM 70.1°F21.2°C 57.3°F14.1°C 64% 6.9 mph SSW11.1 kmh SSW 15.0 mph24.1 kmh 30.03 in1016.9 mb - 0.00 in0.0 mm 0.00 in0.0 mm
10:40 AM 69.6°F20.9°C 56.9°F13.8°C 64% 4.6 mph S7.4 kmh S 9.2 mph14.8 kmh 30.03 in1016.9 mb - 0.00 in0.0 mm 0.00 in0.0 mm
10:30 AM 67.9°F19.9°C 55.7°F13.2°C 65% 9.2 mph SSW14.8 kmh SSW 18.4 mph29.6 kmh 30.03 in1016.9 mb - 0.00 in0.0 mm 0.00 in0.0 mm
10:20 AM 66.3°F19.1°C 54.6°F12.6°C 66% 5.8 mph S9.3 kmh S 11.5 mph18.5 kmh 30.03 in1016.9 mb - 0.00 in0.0 mm 0.00 in0.0 mm
10:10 AM 65.9°F18.8°C 54.6°F12.6°C 67% 5.8 mph S9.3 kmh S 11.5 mph18.5 kmh 30.03 in1016.9 mb - 0.00 in0.0 mm 0.00 in0.0 mm
10:00 AM 65.2°F18.4°C 53.9°F12.2°C 67% 8.1 mph SSW13.0 kmh SSW 15.0 mph24.1 kmh 30.03 in1016.9 mb - 0.00 in0.0 mm 0.00 in0.0 mm
09:50 AM 64.9°F18.3°C 53.6°F12.0°C 67% 4.6 mph S7.4 kmh S 13.8 mph22.2 kmh 30.04 in1017.3 mb - 0.00 in0.0 mm 0.00 in0.0 mm
09:40 AM 63.4°F17.4°C 53.1°F11.7°C 69% 5.8 mph S9.3 kmh S 10.4 mph16.7 kmh 30.04 in1017.3 mb - 0.00 in0.0 mm 0.00 in0.0 mm
09:30 AM 62.7°F17.1°C 52.4°F11.3°C 69% 3.5 mph SSE5.6 kmh SSE 6.9 mph11.1 kmh 30.04 in1017.3 mb - 0.00 in0.0 mm 0.00 in0.0 mm
09:20 AM 62.0°F16.7°C 52.1°F11.2°C 70% 4.6 mph S7.4 kmh S 8.1 mph13.0 kmh 30.04 in1017.3 mb - 0.00 in0.0 mm 0.00 in0.0 mm
09:10 AM 61.4°F16.3°C 52.3°F11.3°C 72% 4.6 mph S7.4 kmh S 6.9 mph11.1 kmh 30.04 in1017.3 mb - 0.00 in0.0 mm 0.00 in0.0 mm
09:00 AM 60.9°F16.1°C 52.2°F11.2°C 73% 5.8 mph SSW9.3 kmh SSW 10.4 mph16.7 kmh 30.04 in1017.3 mb - 0.00 in0.0 mm 0.00 in0.0 mm
08:50 AM 60.5°F15.8°C 51.8°F11.0°C 73% 6.9 mph S11.1 kmh S 10.4 mph16.7 kmh 30.04 in1017.3 mb - 0.00 in0.0 mm 0.00 in0.0 mm
08:40 AM 60.3°F15.7°C 51.6°F10.9°C 73% 2.3 mph SSW3.7 kmh SSW 4.6 mph7.4 kmh 30.04 in1017.3 mb - 0.00 in0.0 mm 0.00 in0.0 mm
08:30 AM 60.2°F15.7°C 51.5°F10.8°C 73% 4.6 mph S7.4 kmh S 11.5 mph18.5 kmh 30.04 in1017.3 mb - 0.00 in0.0 mm 0.00 in0.0 mm
08:20 AM 60.0°F15.6°C 51.3°F10.7°C 73% 5.8 mph S9.3 kmh S 11.5 mph18.5 kmh 30.04 in1017.3 mb - 0.00 in0.0 mm 0.00 in0.0 mm
08:10 AM 59.9°F15.5°C 51.2°F10.7°C 73% 5.8 mph S9.3 kmh S 8.1 mph13.0 kmh 30.04 in1017.3 mb - 0.00 in0.0 mm 0.00 in0.0 mm
08:00 AM 59.6°F15.3°C 50.9°F10.5°C 73% 6.9 mph S11.1 kmh S 11.5 mph18.5 kmh 30.03 in1016.9 mb - 0.00 in0.0 mm 0.00 in0.0 mm
07:50 AM 59.6°F15.3°C 51.3°F10.7°C 74% 3.5 mph S5.6 kmh S 12.7 mph20.4 kmh 30.03 in1016.9 mb - 0.00 in0.0 mm 0.00 in0.0 mm
07:40 AM 59.5°F15.3°C 51.2°F10.7°C 74% 3.5 mph S5.6 kmh S 5.8 mph9.3 kmh 30.03 in1016.9 mb - 0.00 in0.0 mm 0.00 in0.0 mm
07:30 AM 59.8°F15.4°C 51.5°F10.8°C 74% 4.6 mph S7.4 kmh S 10.4 mph16.7 kmh 30.03 in1016.9 mb - 0.00 in0.0 mm 0.00 in0.0 mm
07:20 AM 59.9°F15.5°C 51.2°F10.7°C 73% 4.6 mph S7.4 kmh S 5.8 mph9.3 kmh 30.03 in1016.9 mb - 0.00 in0.0 mm 0.00 in0.0 mm
07:10 AM 60.3°F15.7°C 51.2°F10.7°C 72% 4.6 mph S7.4 kmh S 11.5 mph18.5 kmh 30.03 in1016.9 mb - 0.00 in0.0 mm 0.00 in0.0 mm
07:00 AM 60.8°F16.0°C 51.3°F10.7°C 71% 5.8 mph S9.3 kmh S 9.2 mph14.8 kmh 30.03 in1016.9 mb - 0.00 in0.0 mm 0.00 in0.0 mm
06:50 AM 60.9°F16.1°C 51.4°F10.8°C 71% 4.6 mph S7.4 kmh S 11.5 mph18.5 kmh 30.03 in1016.9 mb - 0.00 in0.0 mm 0.00 in0.0 mm
06:40 AM 61.0°F16.1°C 51.9°F11.1°C 72% 5.8 mph S9.3 kmh S 9.2 mph14.8 kmh 30.03 in1016.9 mb - 0.00 in0.0 mm 0.00 in0.0 mm
06:30 AM 61.0°F16.1°C 51.6°F10.9°C 71% 4.6 mph S7.4 kmh S 15.0 mph24.1 kmh 30.02 in1016.6 mb - 0.00 in0.0 mm 0.00 in0.0 mm
06:20 AM 61.1°F16.2°C 51.6°F10.9°C 71% 4.6 mph S7.4 kmh S 12.7 mph20.4 kmh 30.02 in1016.6 mb - 0.00 in0.0 mm 0.00 in0.0 mm
06:10 AM 61.0°F16.1°C 51.6°F10.9°C 71% 4.6 mph S7.4 kmh S 8.1 mph13.0 kmh 30.02 in1016.6 mb - 0.00 in0.0 mm 0.00 in0.0 mm
06:00 AM 61.2°F16.2°C 51.7°F10.9°C 71% 4.6 mph S7.4 kmh S 8.1 mph13.0 kmh 30.02 in1016.6 mb - 0.00 in0.0 mm 0.00 in0.0 mm
05:50 AM 60.9°F16.1°C 51.4°F10.8°C 71% 2.3 mph S3.7 kmh S 6.9 mph11.1 kmh 30.02 in1016.6 mb - 0.00 in0.0 mm 0.00 in0.0 mm
05:40 AM 60.8°F16.0°C 51.7°F10.9°C 72% 3.5 mph S5.6 kmh S 3.5 mph5.6 kmh 30.02 in1016.6 mb - 0.00 in0.0 mm 0.00 in0.0 mm
05:30 AM 60.5°F15.8°C 51.4°F10.8°C 72% 4.6 mph S7.4 kmh S 6.9 mph11.1 kmh 30.02 in1016.6 mb - 0.00 in0.0 mm 0.00 in0.0 mm
05:20 AM 60.7°F15.9°C 51.2°F10.7°C 71% 3.5 mph S5.6 kmh S 4.6 mph7.4 kmh 30.02 in1016.6 mb - 0.00 in0.0 mm 0.00 in0.0 mm
05:10 AM 60.9°F16.1°C 51.4°F10.8°C 71% 3.5 mph S5.6 kmh S 3.5 mph5.6 kmh 30.02 in1016.6 mb - 0.00 in0.0 mm 0.00 in0.0 mm
05:00 AM 61.0°F16.1°C 51.5°F10.8°C 71% 2.3 mph S3.7 kmh S 5.8 mph9.3 kmh 30.02 in1016.6 mb - 0.00 in0.0 mm 0.00 in0.0 mm
04:50 AM 60.9°F16.1°C 51.4°F10.8°C 71% 5.8 mph SSW9.3 kmh SSW 9.2 mph14.8 kmh 30.02 in1016.6 mb - 0.00 in0.0 mm 0.00 in0.0 mm
04:40 AM 60.9°F16.1°C 51.0°F10.6°C 70% 4.6 mph S7.4 kmh S 6.9 mph11.1 kmh 30.02 in1016.6 mb - 0.00 in0.0 mm 0.00 in0.0 mm
04:30 AM 60.9°F16.1°C 51.0°F10.6°C 70% 4.6 mph S7.4 kmh S 10.4 mph16.7 kmh 30.02 in1016.6 mb - 0.00 in0.0 mm 0.00 in0.0 mm
04:20 AM 60.9°F16.1°C 51.1°F10.6°C 70% 4.6 mph SSW7.4 kmh SSW 8.1 mph13.0 kmh 30.02 in1016.6 mb - 0.00 in0.0 mm 0.00 in0.0 mm
04:10 AM 61.0°F16.1°C 51.1°F10.6°C 70% 5.8 mph S9.3 kmh S 9.2 mph14.8 kmh 30.02 in1016.6 mb - 0.00 in0.0 mm 0.00 in0.0 mm
04:00 AM 60.8°F16.0°C 51.3°F10.7°C 71% 5.8 mph S9.3 kmh S 9.2 mph14.8 kmh 30.02 in1016.6 mb - 0.00 in0.0 mm 0.00 in0.0 mm
03:50 AM 60.9°F16.1°C 51.4°F10.8°C 71% 3.5 mph S5.6 kmh S 6.9 mph11.1 kmh 30.02 in1016.6 mb - 0.00 in0.0 mm 0.00 in0.0 mm
03:40 AM 61.0°F16.1°C 51.1°F10.6°C 70% 3.5 mph S5.6 kmh S 4.6 mph7.4 kmh 30.02 in1016.6 mb - 0.00 in0.0 mm 0.00 in0.0 mm
03:30 AM 60.9°F16.1°C 51.0°F10.6°C 70% 2.3 mph S3.7 kmh S 3.5 mph5.6 kmh 30.02 in1016.6 mb - 0.00 in0.0 mm 0.00 in0.0 mm
03:20 AM 60.7°F15.9°C 51.2°F10.7°C 71% 4.6 mph S7.4 kmh S 8.1 mph13.0 kmh 30.02 in1016.6 mb - 0.00 in0.0 mm 0.00 in0.0 mm
03:10 AM 60.9°F16.1°C 51.0°F10.6°C 70% 5.8 mph S9.3 kmh S 11.5 mph18.5 kmh 30.02 in1016.6 mb - 0.00 in0.0 mm 0.00 in0.0 mm
03:00 AM 61.2°F16.2°C 50.9°F10.5°C 69% 3.5 mph S5.6 kmh S 10.4 mph16.7 kmh 30.03 in1016.9 mb - 0.00 in0.0 mm 0.00 in0.0 mm
02:50 AM 61.2°F16.2°C 51.3°F10.7°C 70% 4.6 mph S7.4 kmh S 8.1 mph13.0 kmh 30.03 in1016.9 mb - 0.00 in0.0 mm 0.00 in0.0 mm
02:40 AM 61.1°F16.2°C 51.3°F10.7°C 70% 3.5 mph S5.6 kmh S 9.2 mph14.8 kmh 30.02 in1016.6 mb - 0.00 in0.0 mm 0.00 in0.0 mm
02:30 AM 61.4°F16.3°C 51.1°F10.6°C 69% 3.5 mph S5.6 kmh S 3.5 mph5.6 kmh 30.02 in1016.6 mb - 0.00 in0.0 mm 0.00 in0.0 mm
02:20 AM 61.3°F16.3°C 51.1°F10.6°C 69% 2.3 mph S3.7 kmh S 5.8 mph9.3 kmh 30.02 in1016.6 mb - 0.00 in0.0 mm 0.00 in0.0 mm
02:10 AM 61.0°F16.1°C 51.1°F10.6°C 70% 4.6 mph SSW7.4 kmh SSW 8.1 mph13.0 kmh 30.02 in1016.6 mb - 0.00 in0.0 mm 0.00 in0.0 mm
02:00 AM 61.1°F16.2°C 51.3°F10.7°C 70% 4.6 mph SSW7.4 kmh SSW 5.8 mph9.3 kmh 30.03 in1016.9 mb - 0.00 in0.0 mm 0.00 in0.0 mm
01:50 AM 60.9°F16.1°C 51.1°F10.6°C 70% 2.3 mph S3.7 kmh S 10.4 mph16.7 kmh 30.03 in1016.9 mb - 0.00 in0.0 mm 0.00 in0.0 mm
01:40 AM 60.9°F16.1°C 51.0°F10.6°C 70% 5.8 mph S9.3 kmh S 9.2 mph14.8 kmh 30.02 in1016.6 mb - 0.00 in0.0 mm 0.00 in0.0 mm
01:30 AM 61.1°F16.2°C 50.8°F10.4°C 69% 4.6 mph S7.4 kmh S 8.1 mph13.0 kmh 30.03 in1016.9 mb - 0.00 in0.0 mm 0.00 in0.0 mm
01:20 AM 61.3°F16.3°C 51.1°F10.6°C 69% 3.5 mph SSW5.6 kmh SSW 5.8 mph9.3 kmh 30.03 in1016.9 mb - 0.00 in0.0 mm 0.00 in0.0 mm
01:10 AM 61.4°F16.3°C 51.2°F10.7°C 69% 2.3 mph SSW3.7 kmh SSW 4.6 mph7.4 kmh 30.03 in1016.9 mb - 0.00 in0.0 mm 0.00 in0.0 mm
01:00 AM 61.7°F16.5°C 51.0°F10.6°C 68% 6.9 mph S11.1 kmh S 10.4 mph16.7 kmh 30.04 in1017.3 mb - 0.00 in0.0 mm 0.00 in0.0 mm
12:50 AM 61.8°F16.6°C 51.1°F10.6°C 68% 4.6 mph S7.4 kmh S 6.9 mph11.1 kmh 30.03 in1016.9 mb - 0.00 in0.0 mm 0.00 in0.0 mm
12:40 AM 61.9°F16.6°C 51.2°F10.7°C 68% 5.8 mph S9.3 kmh S 6.9 mph11.1 kmh 30.03 in1016.9 mb - 0.00 in0.0 mm 0.00 in0.0 mm
12:30 AM 62.1°F16.7°C 51.0°F10.6°C 67% 6.9 mph SSW11.1 kmh SSW 11.5 mph18.5 kmh 30.03 in1016.9 mb - 0.00 in0.0 mm 0.00 in0.0 mm
12:20 AM 62.3°F16.8°C 51.2°F10.7°C 67% 8.1 mph S13.0 kmh S 10.4 mph16.7 kmh 30.03 in1016.9 mb - 0.00 in0.0 mm 0.00 in0.0 mm
12:10 AM 62.5°F16.9°C 51.4°F10.8°C 67% 4.6 mph S7.4 kmh S 6.9 mph11.1 kmh 30.02 in1016.6 mb - 0.00 in0.0 mm 0.00 in0.0 mm
12:00 AM 62.1°F16.7°C 51.0°F10.6°C 67% 5.8 mph S9.3 kmh S 11.5 mph18.5 kmh 30.01 in1016.3 mb - 0.00 in0.0 mm 0.00 in0.0 mm